• Join FlightAware (Why Join?)
  • Login
  • US Flag 
02:25PM EDT


 

Airport Tracker/Info


-or-


 

Live Flight TrackerFlight Track Log ✈ SWA1692 ✈ 04-Jul-2014 ✈ KOAK - KLAS

Flight Track Log - Related Links

Times and Time Zones

All times are in EDT time to prevent confusion due to time zone crossing. See the SWA1692 flight status page for this flight to view local times or setup timezone preferences in your user account.

Time Position Orientation Groundspeed Altitude Reporting Facility
EDT Latitude Longitude Course Direction KTS MPH feet Rate Location/Type
02:59PM 37.7333 -122.2667 322° Northwest 172 198 2,100  Level Northern Cal TRACON
03:00PM 37.7833 -122.3167 322° Northwest 224 258 4,500 2,460 Climbing Northern Cal TRACON
03:01PM 37.7333 -122.3667 218° Southwest 238 274 7,100 2,760 Climbing Northern Cal TRACON
03:02PM 37.6667 -122.4167 211° Southwest 283 326 10,100 2,640 Climbing Northern Cal TRACON
03:02PM 37.6000 -122.4500 202° Southwest 324 373 12,200 2,400 Climbing Northern Cal TRACON
03:03PM 37.5500 -122.4403 171° South 342 394 13,700 2,700 Climbing Oakland Center
03:04PM 37.4803 -122.3506 134° Southeast 360 414 16,600 2,700 Climbing Oakland Center
03:05PM 37.4456 -122.2258 109° East 388 447 19,300 2,580 Climbing Oakland Center
03:06PM 37.4156 -122.0939 106° East 393 452 22,000 2,460 Climbing Oakland Center
03:07PM 37.3850 -121.9583 106° East 402 463 24,400 2,460 Climbing Oakland Center
03:08PM 37.3469 -121.7861 105° East 417 480 27,100 2,220 Climbing Oakland Center
03:09PM 37.3361 -121.6372 95° East 426 490 29,000 900 Climbing Oakland Center
03:10PM 37.3425 -121.4892 87° East 425 489 29,000  Level Oakland Center
03:11PM 37.3469 -121.3408 88° East 425 489 29,000 600 Level Oakland Center
03:12PM 37.3536 -121.1928 87° East 425 489 30,300 1,560 Climbing Oakland Center
03:13PM 37.3589 -121.0444 87° East 426 490 32,300 1,260 Climbing Oakland Center
03:14PM 37.3631 -120.8986 88° East 424 488 33,000 300 Climbing Oakland Center
03:15PM 37.3669 -120.7519 88° East 424 488 33,000  Level Oakland Center
03:17PM 37.3772 -120.4606 87° East 417 480 33,000  Level Los Angeles Center
03:18PM 37.3828 -120.2814 88° East 421 484 33,000  Level Los Angeles Center
03:19PM 37.3864 -120.1322 88° East 422 486 33,000  Level Los Angeles Center
03:20PM 37.3908 -119.9814 88° East 427 491 33,000  Level Los Angeles Center
03:21PM 37.3953 -119.8308 88° East 428 493 33,000  Level Los Angeles Center
03:23PM 37.3981 -119.6792 89° East 429 494 33,000  Level Oakland Center
03:24PM 37.4014 -119.5281 88° East 430 495 33,000  Level Oakland Center
03:25PM 37.4042 -119.3742 89° East 431 496 33,000  Level Oakland Center
03:26PM 37.4078 -119.2211 88° East 434 499 33,000  Level Oakland Center
03:27PM 37.4111 -119.0364 89° East 438 504 33,000  Level Oakland Center
03:28PM 37.4144 -118.8836 88° East 438 504 33,000  Level Oakland Center
03:29PM 37.4169 -118.7256 89° East 444 511 33,000  Level Oakland Center
03:30PM 37.4194 -118.5719 89° East 442 509 33,000  Level Oakland Center
03:31PM 37.4208 -118.4186 89° East 440 506 33,000  Level Oakland Center
03:32PM 37.4228 -118.2653 89° East 440 506 33,000  Level Oakland Center
03:33PM 37.4247 -118.1089 89° East 443 510 33,000  Level Oakland Center
03:34PM 37.4256 -117.9542 90° East 444 511 33,000  Level Oakland Center
03:35PM 37.4281 -117.8014 89° East 443 510 33,000  Level Oakland Center
03:36PM 37.4292 -117.6447 89° East 443 510 33,000  Level Oakland Center
03:37PM 37.4303 -117.4592 90° East 443 510 33,000  Level Oakland Center
03:38PM 37.4236 -117.3064 93° East 451 519 33,000  Level Oakland Center
03:39PM 37.3414 -117.2044 135° Southeast 426 490 33,000  Level Oakland Center
03:40PM 37.2425 -117.1208 146° Southeast 428 493 33,000  Level Oakland Center
03:41PM 37.1244 -117.0197 146° Southeast 427 491 33,000  Level Los Angeles Center
03:42PM 37.0256 -116.9361 146° Southeast 427 491 33,000  Level Los Angeles Center
03:43PM 36.9272 -116.8528 146° Southeast 427 491 33,000 -480 Level Los Angeles Center
03:44PM 36.8275 -116.7708 147° Southeast 428 493 32,100 -1,440 Descending Los Angeles Center
03:45PM 36.7453 -116.6667 135° Southeast 420 483 30,100 -1,920 Descending Los Angeles Center
03:46PM 36.6703 -116.5617 132° Southeast 412 474 28,200 -1,860 Descending Los Angeles Center
03:47PM 36.5992 -116.4586 131° Southeast 396 456 26,300 -1,980 Descending Los Angeles Center
03:48PM 36.5206 -116.3483 132° Southeast 382 440 24,200 -1,860 Descending Los Angeles Center
03:49PM 36.4536 -116.2528 131° Southeast 372 428 22,500 -1,740 Descending Los Angeles Center
03:50PM 36.4047 -116.1881 133° Southeast 363 418 21,300 -1,980 Descending Los Angeles Center
03:50PM 36.3806 -116.1483 127° Southeast 365 420 20,500 -1,980 Descending Los Angeles Center
03:51PM 36.3492 -116.1072 133° Southeast 358 412 19,700 -1,680 Descending Los Angeles Center
03:51PM 36.3147 -116.0603 132° Southeast 351 404 18,800 -1,740 Descending Los Angeles Center
03:52PM 36.2822 -116.0139 131° Southeast 343 395 17,800 -1,560 Descending Los Angeles Center
03:52PM 36.2553 -115.9736 130° Southeast 338 389 17,200 -1,560 Descending Los Angeles Center
03:53PM 36.2244 -115.9339 134° Southeast 330 380 16,400 -1,080 Descending Los Angeles Center
03:53PM 36.1931 -115.8808 126° Southeast 326 375 16,100 -300 Descending Los Angeles Center
03:54PM 36.1761 -115.8272 111° Southeast 307 353 16,100  Level Los Angeles Center
03:54PM 36.1625 -115.7828 111° Southeast 308 354 16,100 -120 Level Los Angeles Center
03:55PM 36.1467 -115.7278 110° East 304 350 16,000 -900 Descending Los Angeles Center
03:55PM 36.1286 -115.6769 114° Southeast 308 354 15,200 -1,500 Descending Los Angeles Center
03:56PM 36.1153 -115.6314 110° East 304 350 14,500 -1,440 Descending Los Angeles Center
03:56PM 36.0981 -115.5811 113° Southeast 305 351 13,700 -1,500 Descending Los Angeles Center
03:57PM 36.0844 -115.5378 111° Southeast 298 343 13,000 -1,500 Descending Los Angeles Center
03:57PM 36.0644 -115.4797 113° Southeast 297 342 12,200 -1,500 Descending Los Angeles Center
03:58PM 36.0519 -115.4367 110° East 297 342 11,500 -1,080 Descending Los Angeles Center
03:59PM 36.0344 -115.3858 113° Southeast 298 343 11,100 -540 Descending Los Angeles Center
03:59PM 36.0281 -115.3356 99° East 281 323 10,900 -780 Descending Los Angeles Center
04:00PM 36.0250 -115.2919 95° East 278 320 10,300 -1,500 Descending Los Angeles Center
04:00PM 36.0225 -115.2497 94° East 273 314 9,600 -1,260 Descending Los Angeles Center
04:01PM 36.0181 -115.1922 95° East 276 318 9,000 -1,140 Descending Los Angeles Center
04:01PM 36.0158 -115.1589 95° East 261 300 8,500 -720 Descending Los Angeles Center
04:02PM 36.0128 -115.1058 94° East 259 298 8,300 -720 Descending Los Angeles Center
04:02PM 36.0078 -115.0631 98° East 245 282 7,700 -1,020 Descending Los Angeles Center
04:03PM 36.0072 -115.0214 91° East 231 266 7,300 -1,140 Descending Los Angeles Center
04:03PM 36.0056 -115.0028 96° East 210 242 6,800 -1,200 Descending Los Angeles Center
04:04PM 36.0272 -114.9644 55° Northeast 211 243 6,100 -1,080 Descending Los Angeles Center
04:04PM 36.0475 -114.9675 353° North 199 229 5,600 -1,200 Descending Los Angeles Center
04:05PM 36.0697 -114.9956 314° West 172 198 4,900 -1,140 Descending Los Angeles Center
04:05PM 36.0725 -115.0125 281° West 150 173 4,500 -1,380 Descending Los Angeles Center
04:06PM 36.0747 -115.0469 275° West 158 182 3,500 -1,500 Descending Los Angeles Center
04:06PM 36.0736 -115.0678 266° West 149 171 3,000 -1,020 Descending Los Angeles Center
04:07PM 36.0733 -115.0994 269° West 142 163 2,500 -720 Descending Los Angeles Center
04:07PM 36.0733 -115.1158 270° West 148 170 2,300 -420 Descending Los Angeles Center
04:08PM 36.0728 -115.1497 269° West 142 163 2,100 -300 Descending Los Angeles Center